PWSweather.com
Personal Weather Stations
Station Observations

ChardChardGB

Lat: 50.877408, Lon: -2.94964741

Elevation: 341

Station Type: WS3083

http://www.merriott-astro.co.uk/weather/index.htm

High Low Average
Temperature 54.1°F12.3°C 42.8°F6.0°C 47.5°F8.6°C
Dew Point 43.3°F6.3°C 38.7°F3.7°C 41.1°F5.1°C
Winds 13.1 mph 21.1 kmh Calm Calm 5.0 mph S8.0 kmh S
Wind Gusts 19.0 mph30.6 kmh -- 8.0 mph12.9 kmh
Humidity 89% 64% 79%
Pressure 29.78 in1008.5 mb 29.70 in1005.8 mb -
Precipitation 0.00 in0.0 mm - -
Hour Temp Dew Point Humidity Winds Wind Gusts Pressure Precip Precip Rate Daily Precip Total
12:00 AM 48.2°F9.0°C 43.3°F6.3°C 83% 0.1 mph SW0.2 kmh SW 2.2 mph3.5 kmh 29.77 in1008.1 mb 0.00 in0.0 mm 0.00 in0.0 mm 0.00 in0.0 mm
12:10 AM 48.2°F9.0°C 43.3°F6.3°C 83% 0.2 mph SE0.3 kmh SE 0.7 mph1.1 kmh 29.77 in1008.1 mb 0.00 in0.0 mm 0.00 in0.0 mm 0.00 in0.0 mm
12:20 AM 48.2°F9.0°C 43.3°F6.3°C 83% Calm Calm -- 29.78 in1008.5 mb 0.00 in0.0 mm 0.00 in0.0 mm 0.00 in0.0 mm
12:30 AM 48.0°F8.9°C 43.1°F6.2°C 83% Calm Calm -- 29.77 in1008.1 mb 0.00 in0.0 mm 0.00 in0.0 mm 0.00 in0.0 mm
12:40 AM 48.0°F8.9°C 43.1°F6.2°C 83% 0.7 mph SW1.1 kmh SW 3.1 mph5.0 kmh 29.77 in1008.1 mb 0.00 in0.0 mm 0.00 in0.0 mm 0.00 in0.0 mm
12:50 AM 48.0°F8.9°C 43.1°F6.2°C 83% 0.2 mph W0.3 kmh W 2.2 mph3.5 kmh 29.77 in1008.1 mb 0.00 in0.0 mm 0.00 in0.0 mm 0.00 in0.0 mm
01:00 AM 48.0°F8.9°C 43.1°F6.2°C 83% 0.1 mph SSW0.2 kmh SSW 0.7 mph1.1 kmh 29.78 in1008.5 mb 0.00 in0.0 mm 0.00 in0.0 mm 0.00 in0.0 mm
01:10 AM 48.0°F8.9°C 43.1°F6.2°C 83% Calm Calm -- 29.77 in1008.1 mb 0.00 in0.0 mm 0.00 in0.0 mm 0.00 in0.0 mm
01:20 AM 47.8°F8.8°C 42.9°F6.1°C 83% Calm Calm -- 29.77 in1008.1 mb 0.00 in0.0 mm 0.00 in0.0 mm 0.00 in0.0 mm
01:30 AM 47.8°F8.8°C 42.9°F6.1°C 83% Calm Calm -- 29.77 in1008.1 mb 0.00 in0.0 mm 0.00 in0.0 mm 0.00 in0.0 mm
01:40 AM 47.8°F8.8°C 42.9°F6.1°C 83% Calm Calm -- 29.77 in1008.1 mb 0.00 in0.0 mm 0.00 in0.0 mm 0.00 in0.0 mm
01:50 AM 47.7°F8.7°C 42.8°F6.0°C 83% 0.4 mph S0.6 kmh S 2.2 mph3.5 kmh 29.77 in1008.1 mb 0.00 in0.0 mm 0.00 in0.0 mm 0.00 in0.0 mm
02:00 AM 48.0°F8.9°C 42.8°F6.0°C 82% 1.0 mph WSW1.6 kmh WSW 5.4 mph8.7 kmh 29.77 in1008.1 mb 0.00 in0.0 mm 0.00 in0.0 mm 0.00 in0.0 mm
02:10 AM 48.0°F8.9°C 42.2°F5.7°C 80% 2.5 mph SSW4.0 kmh SSW 8.3 mph13.4 kmh 29.77 in1008.1 mb 0.00 in0.0 mm 0.00 in0.0 mm 0.00 in0.0 mm
02:20 AM 47.8°F8.8°C 40.3°F4.6°C 75% Calm Calm -- 29.77 in1008.1 mb 0.00 in0.0 mm 0.00 in0.0 mm 0.00 in0.0 mm
02:30 AM 47.5°F8.6°C 38.9°F3.8°C 72% 0.1 mph SW0.2 kmh SW 0.7 mph1.1 kmh 29.77 in1008.1 mb 0.00 in0.0 mm 0.00 in0.0 mm 0.00 in0.0 mm
02:40 AM 47.3°F8.5°C 38.7°F3.7°C 72% Calm Calm -- 29.77 in1008.1 mb 0.00 in0.0 mm 0.00 in0.0 mm 0.00 in0.0 mm
02:50 AM 47.3°F8.5°C 39.1°F3.9°C 73% Calm Calm -- 29.77 in1008.1 mb 0.00 in0.0 mm 0.00 in0.0 mm 0.00 in0.0 mm
03:00 AM 47.8°F8.8°C 40.3°F4.6°C 75% 3.4 mph SW5.5 kmh SW 9.2 mph14.8 kmh 29.76 in1007.8 mb 0.00 in0.0 mm 0.00 in0.0 mm 0.00 in0.0 mm
03:10 AM 48.0°F8.9°C 41.2°F5.1°C 77% 3.2 mph SSW5.1 kmh SSW 9.8 mph15.8 kmh 29.76 in1007.8 mb 0.00 in0.0 mm 0.00 in0.0 mm 0.00 in0.0 mm
03:20 AM 48.0°F8.9°C 41.8°F5.4°C 79% 6.1 mph S9.8 kmh S 9.8 mph15.8 kmh 29.75 in1007.5 mb 0.00 in0.0 mm 0.00 in0.0 mm 0.00 in0.0 mm
03:30 AM 47.7°F8.7°C 41.8°F5.4°C 80% 6.3 mph SSE10.1 kmh SSE 10.7 mph17.2 kmh 29.75 in1007.5 mb 0.00 in0.0 mm 0.00 in0.0 mm 0.00 in0.0 mm
03:40 AM 47.7°F8.7°C 41.8°F5.4°C 80% 6.7 mph S10.8 kmh S 9.2 mph14.8 kmh 29.75 in1007.5 mb 0.00 in0.0 mm 0.00 in0.0 mm 0.00 in0.0 mm
03:50 AM 47.5°F8.6°C 41.6°F5.3°C 80% 5.9 mph SSW9.5 kmh SSW 9.2 mph14.8 kmh 29.74 in1007.1 mb 0.00 in0.0 mm 0.00 in0.0 mm 0.00 in0.0 mm
04:00 AM 47.3°F8.5°C 41.8°F5.4°C 81% 5.2 mph SW8.4 kmh SW 7.6 mph12.2 kmh 29.74 in1007.1 mb 0.00 in0.0 mm 0.00 in0.0 mm 0.00 in0.0 mm
04:10 AM 47.1°F8.4°C 41.6°F5.3°C 81% 4.1 mph SW6.6 kmh SW 8.3 mph13.4 kmh 29.74 in1007.1 mb 0.00 in0.0 mm 0.00 in0.0 mm 0.00 in0.0 mm
04:20 AM 46.9°F8.3°C 41.4°F5.2°C 81% 4.7 mph SW7.6 kmh SW 6.0 mph9.7 kmh 29.74 in1007.1 mb 0.00 in0.0 mm 0.00 in0.0 mm 0.00 in0.0 mm
04:30 AM 46.8°F8.2°C 41.2°F5.1°C 81% 4.4 mph SW7.1 kmh SW 6.9 mph11.1 kmh 29.74 in1007.1 mb 0.00 in0.0 mm 0.00 in0.0 mm 0.00 in0.0 mm
04:40 AM 46.6°F8.1°C 41.1°F5.1°C 81% 4.4 mph SSW7.1 kmh SSW 7.6 mph12.2 kmh 29.74 in1007.1 mb 0.00 in0.0 mm 0.00 in0.0 mm 0.00 in0.0 mm
04:50 AM 46.0°F7.8°C 40.2°F4.6°C 80% 0.8 mph WSW1.3 kmh WSW 3.8 mph6.1 kmh 29.75 in1007.5 mb 0.00 in0.0 mm 0.00 in0.0 mm 0.00 in0.0 mm
05:00 AM 45.7°F7.6°C 39.5°F4.2°C 79% 3.1 mph SSW5.0 kmh SSW 6.0 mph9.7 kmh 29.74 in1007.1 mb 0.00 in0.0 mm 0.00 in0.0 mm 0.00 in0.0 mm
05:10 AM 45.3°F7.4°C 40.5°F4.7°C 83% 1.4 mph S2.3 kmh S 6.0 mph9.7 kmh 29.74 in1007.1 mb 0.00 in0.0 mm 0.00 in0.0 mm 0.00 in0.0 mm
05:20 AM 45.0°F7.2°C 40.1°F4.5°C 83% 0.7 mph SW1.1 kmh SW 3.8 mph6.1 kmh 29.74 in1007.1 mb 0.00 in0.0 mm 0.00 in0.0 mm 0.00 in0.0 mm
05:30 AM 45.0°F7.2°C 40.1°F4.5°C 83% 1.8 mph SW2.9 kmh SW 5.4 mph8.7 kmh 29.74 in1007.1 mb 0.00 in0.0 mm 0.00 in0.0 mm 0.00 in0.0 mm
05:40 AM 45.0°F7.2°C 40.1°F4.5°C 83% 2.8 mph SSW4.5 kmh SSW 8.3 mph13.4 kmh 29.73 in1006.8 mb 0.00 in0.0 mm 0.00 in0.0 mm 0.00 in0.0 mm
05:50 AM 45.0°F7.2°C 40.1°F4.5°C 83% 0.8 mph SSW1.3 kmh SSW 4.5 mph7.2 kmh 29.73 in1006.8 mb 0.00 in0.0 mm 0.00 in0.0 mm 0.00 in0.0 mm
06:00 AM 44.8°F7.1°C 40.2°F4.6°C 84% 0.8 mph SSW1.3 kmh SSW 4.5 mph7.2 kmh 29.73 in1006.8 mb 0.00 in0.0 mm 0.00 in0.0 mm 0.00 in0.0 mm
06:10 AM 44.8°F7.1°C 40.2°F4.6°C 84% 0.4 mph S0.6 kmh S 3.1 mph5.0 kmh 29.73 in1006.8 mb 0.00 in0.0 mm 0.00 in0.0 mm 0.00 in0.0 mm
06:20 AM 45.1°F7.3°C 40.9°F4.9°C 85% 1.7 mph SSW2.7 kmh SSW 5.4 mph8.7 kmh 29.73 in1006.8 mb 0.00 in0.0 mm 0.00 in0.0 mm 0.00 in0.0 mm
06:30 AM 45.3°F7.4°C 41.4°F5.2°C 86% 2.1 mph SW3.4 kmh SW 6.9 mph11.1 kmh 29.73 in1006.8 mb 0.00 in0.0 mm 0.00 in0.0 mm 0.00 in0.0 mm
06:40 AM 45.9°F7.7°C 40.7°F4.8°C 82% 4.1 mph SSW6.6 kmh SSW 10.7 mph17.2 kmh 29.73 in1006.8 mb 0.00 in0.0 mm 0.00 in0.0 mm 0.00 in0.0 mm
06:50 AM 46.0°F7.8°C 40.9°F4.9°C 82% 4.4 mph SSW7.1 kmh SSW 12.1 mph19.5 kmh 29.72 in1006.4 mb 0.00 in0.0 mm 0.00 in0.0 mm 0.00 in0.0 mm
07:00 AM 46.0°F7.8°C 40.9°F4.9°C 82% 4.5 mph SW7.2 kmh SW 10.7 mph17.2 kmh 29.73 in1006.8 mb 0.00 in0.0 mm 0.00 in0.0 mm 0.00 in0.0 mm
07:10 AM 46.2°F7.9°C 41.3°F5.2°C 83% 3.9 mph S6.3 kmh S 7.6 mph12.2 kmh 29.73 in1006.8 mb 0.00 in0.0 mm 0.00 in0.0 mm 0.00 in0.0 mm
07:20 AM 46.4°F8.0°C 41.5°F5.3°C 83% 3.4 mph SW5.5 kmh SW 7.6 mph12.2 kmh 29.73 in1006.8 mb 0.00 in0.0 mm 0.00 in0.0 mm 0.00 in0.0 mm
07:30 AM 46.6°F8.1°C 41.7°F5.4°C 83% 4.1 mph SW6.6 kmh SW 7.6 mph12.2 kmh 29.73 in1006.8 mb 0.00 in0.0 mm 0.00 in0.0 mm 0.00 in0.0 mm
07:40 AM 46.4°F8.0°C 41.5°F5.3°C 83% 2.2 mph SW3.5 kmh SW 6.0 mph9.7 kmh 29.73 in1006.8 mb 0.00 in0.0 mm 0.00 in0.0 mm 0.00 in0.0 mm
07:50 AM 46.8°F8.2°C 41.9°F5.5°C 83% 4.0 mph SW6.4 kmh SW 7.6 mph12.2 kmh 29.74 in1007.1 mb 0.00 in0.0 mm 0.00 in0.0 mm 0.00 in0.0 mm
08:00 AM 46.9°F8.3°C 42.1°F5.6°C 83% 5.8 mph SW9.3 kmh SW 11.4 mph18.3 kmh 29.74 in1007.1 mb 0.00 in0.0 mm 0.00 in0.0 mm 0.00 in0.0 mm
08:10 AM 47.3°F8.5°C 42.1°F5.6°C 82% 9.3 mph S15.0 kmh S 15.2 mph24.5 kmh 29.74 in1007.1 mb 0.00 in0.0 mm 0.00 in0.0 mm 0.00 in0.0 mm
08:20 AM 47.5°F8.6°C 42.3°F5.7°C 82% 8.7 mph SSW14.0 kmh SSW 13.0 mph20.9 kmh 29.73 in1006.8 mb 0.00 in0.0 mm 0.00 in0.0 mm 0.00 in0.0 mm
08:30 AM 47.5°F8.6°C 41.9°F5.5°C 81% 10.0 mph SSW16.1 kmh SSW 14.5 mph23.3 kmh 29.73 in1006.8 mb 0.00 in0.0 mm 0.00 in0.0 mm 0.00 in0.0 mm
08:40 AM 47.5°F8.6°C 41.6°F5.3°C 80% 10.0 mph SW16.1 kmh SW 14.5 mph23.3 kmh 29.74 in1007.1 mb 0.00 in0.0 mm 0.00 in0.0 mm 0.00 in0.0 mm
08:50 AM 47.7°F8.7°C 41.8°F5.4°C 80% 9.9 mph SW15.9 kmh SW 18.3 mph29.5 kmh 29.74 in1007.1 mb 0.00 in0.0 mm 0.00 in0.0 mm 0.00 in0.0 mm
09:00 AM 47.8°F8.8°C 41.6°F5.3°C 79% 11.0 mph SSW17.7 kmh SSW 18.3 mph29.5 kmh 29.74 in1007.1 mb 0.00 in0.0 mm 0.00 in0.0 mm 0.00 in0.0 mm
09:10 AM 48.0°F8.9°C 41.2°F5.1°C 77% 11.2 mph SSW18.0 kmh SSW 15.9 mph25.6 kmh 29.73 in1006.8 mb 0.00 in0.0 mm 0.00 in0.0 mm 0.00 in0.0 mm
09:20 AM 48.2°F9.0°C 41.3°F5.2°C 77% 12.9 mph SSW20.8 kmh SSW 17.4 mph28.0 kmh 29.74 in1007.1 mb 0.00 in0.0 mm 0.00 in0.0 mm 0.00 in0.0 mm
09:30 AM 48.4°F9.1°C 41.5°F5.3°C 77% 10.8 mph SSW17.4 kmh SSW 13.0 mph20.9 kmh 29.74 in1007.1 mb 0.00 in0.0 mm 0.00 in0.0 mm 0.00 in0.0 mm
09:40 AM 48.7°F9.3°C 41.5°F5.3°C 76% 9.3 mph S15.0 kmh S 13.6 mph21.9 kmh 29.74 in1007.1 mb 0.00 in0.0 mm 0.00 in0.0 mm 0.00 in0.0 mm
09:50 AM 48.9°F9.4°C 41.7°F5.4°C 76% 9.3 mph SW15.0 kmh SW 13.0 mph20.9 kmh 29.74 in1007.1 mb 0.00 in0.0 mm 0.00 in0.0 mm 0.00 in0.0 mm
10:00 AM 49.3°F9.6°C 41.7°F5.4°C 75% 11.3 mph SW18.2 kmh SW 15.2 mph24.5 kmh 29.74 in1007.1 mb 0.00 in0.0 mm 0.00 in0.0 mm 0.00 in0.0 mm
10:10 AM 50.4°F10.2°C 42.0°F5.6°C 73% 11.2 mph S18.0 kmh S 14.5 mph23.3 kmh 29.74 in1007.1 mb 0.00 in0.0 mm 0.00 in0.0 mm 0.00 in0.0 mm
10:20 AM 51.3°F10.7°C 42.6°F5.9°C 72% 9.0 mph SW14.5 kmh SW 11.4 mph18.3 kmh 29.74 in1007.1 mb 0.00 in0.0 mm 0.00 in0.0 mm 0.00 in0.0 mm
10:30 AM 51.3°F10.7°C 42.2°F5.7°C 71% 9.6 mph SSW15.4 kmh SSW 13.0 mph20.9 kmh 29.74 in1007.1 mb 0.00 in0.0 mm 0.00 in0.0 mm 0.00 in0.0 mm
10:40 AM 50.5°F10.3°C 41.5°F5.3°C 71% 11.2 mph SSW18.0 kmh SSW 15.2 mph24.5 kmh 29.74 in1007.1 mb 0.00 in0.0 mm 0.00 in0.0 mm 0.00 in0.0 mm
10:50 AM 50.2°F10.1°C 41.1°F5.1°C 71% 11.5 mph SW18.5 kmh SW 15.2 mph24.5 kmh 29.74 in1007.1 mb 0.00 in0.0 mm 0.00 in0.0 mm 0.00 in0.0 mm
11:00 AM 50.4°F10.2°C 41.3°F5.2°C 71% 11.0 mph S17.7 kmh S 16.8 mph27.0 kmh 29.75 in1007.5 mb 0.00 in0.0 mm 0.00 in0.0 mm 0.00 in0.0 mm
11:10 AM 50.7°F10.4°C 41.7°F5.4°C 71% 9.0 mph SW14.5 kmh SW 13.0 mph20.9 kmh 29.74 in1007.1 mb 0.00 in0.0 mm 0.00 in0.0 mm 0.00 in0.0 mm
11:20 AM 50.9°F10.5°C 41.5°F5.3°C 70% 11.7 mph WSW18.8 kmh WSW 16.8 mph27.0 kmh 29.75 in1007.5 mb 0.00 in0.0 mm 0.00 in0.0 mm 0.00 in0.0 mm
11:30 AM 51.4°F10.8°C 42.0°F5.6°C 70% 12.4 mph S20.0 kmh S 15.9 mph25.6 kmh 29.74 in1007.1 mb 0.00 in0.0 mm 0.00 in0.0 mm 0.00 in0.0 mm
11:40 AM 51.6°F10.9°C 41.8°F5.4°C 69% 13.1 mph SW21.1 kmh SW 19.0 mph30.6 kmh 29.74 in1007.1 mb 0.00 in0.0 mm 0.00 in0.0 mm 0.00 in0.0 mm
11:50 AM 51.1°F10.6°C 41.6°F5.3°C 70% 12.3 mph SSW19.8 kmh SSW 19.0 mph30.6 kmh 29.73 in1006.8 mb 0.00 in0.0 mm 0.00 in0.0 mm 0.00 in0.0 mm
12:00 PM 51.3°F10.7°C 41.8°F5.4°C 70% 10.8 mph SSW17.4 kmh SSW 18.3 mph29.5 kmh 29.74 in1007.1 mb 0.00 in0.0 mm 0.00 in0.0 mm 0.00 in0.0 mm
12:10 PM 52.5°F11.4°C 42.3°F5.7°C 68% 11.1 mph SSW17.9 kmh SSW 13.6 mph21.9 kmh 29.75 in1007.5 mb 0.00 in0.0 mm 0.00 in0.0 mm 0.00 in0.0 mm
12:20 PM 53.6°F12.0°C 43.3°F6.3°C 68% 10.2 mph SSW16.4 kmh SSW 17.4 mph28.0 kmh 29.74 in1007.1 mb 0.00 in0.0 mm 0.00 in0.0 mm 0.00 in0.0 mm
12:30 PM 54.1°F12.3°C 42.2°F5.7°C 64% 9.8 mph SW15.8 kmh SW 13.6 mph21.9 kmh 29.73 in1006.8 mb 0.00 in0.0 mm 0.00 in0.0 mm 0.00 in0.0 mm
12:40 PM 53.6°F12.0°C 41.7°F5.4°C 64% 11.8 mph SSW19.0 kmh SSW 16.8 mph27.0 kmh 29.74 in1007.1 mb 0.00 in0.0 mm 0.00 in0.0 mm 0.00 in0.0 mm
12:50 PM 53.8°F12.1°C 41.9°F5.5°C 64% 8.2 mph SSW13.2 kmh SSW 14.5 mph23.3 kmh 29.74 in1007.1 mb 0.00 in0.0 mm 0.00 in0.0 mm 0.00 in0.0 mm
01:00 PM 52.5°F11.4°C 41.1°F5.1°C 65% 9.1 mph SW14.6 kmh SW 15.2 mph24.5 kmh 29.73 in1006.8 mb 0.00 in0.0 mm 0.00 in0.0 mm 0.00 in0.0 mm
01:10 PM 51.6°F10.9°C 41.0°F5.0°C 67% 9.9 mph SSW15.9 kmh SSW 15.9 mph25.6 kmh 29.73 in1006.8 mb 0.00 in0.0 mm 0.00 in0.0 mm 0.00 in0.0 mm
01:20 PM 51.8°F11.0°C 41.6°F5.3°C 68% 11.4 mph SW18.3 kmh SW 15.9 mph25.6 kmh 29.73 in1006.8 mb 0.00 in0.0 mm 0.00 in0.0 mm 0.00 in0.0 mm
01:30 PM 52.3°F11.3°C 41.3°F5.2°C 66% 9.2 mph SSW14.8 kmh SSW 11.4 mph18.3 kmh 29.73 in1006.8 mb 0.00 in0.0 mm 0.00 in0.0 mm 0.00 in0.0 mm
01:40 PM 51.6°F10.9°C 40.6°F4.8°C 66% 8.7 mph S14.0 kmh S 14.5 mph23.3 kmh 29.73 in1006.8 mb 0.00 in0.0 mm 0.00 in0.0 mm 0.00 in0.0 mm
01:50 PM 51.1°F10.6°C 40.9°F4.9°C 68% 11.1 mph SSW17.9 kmh SSW 13.6 mph21.9 kmh 29.73 in1006.8 mb 0.00 in0.0 mm 0.00 in0.0 mm 0.00 in0.0 mm
02:00 PM 50.9°F10.5°C 40.7°F4.8°C 68% 9.1 mph SW14.6 kmh SW 12.1 mph19.5 kmh 29.73 in1006.8 mb 0.00 in0.0 mm 0.00 in0.0 mm 0.00 in0.0 mm
02:10 PM 50.7°F10.4°C 40.9°F4.9°C 69% 9.2 mph SSW14.8 kmh SSW 11.4 mph18.3 kmh 29.73 in1006.8 mb 0.00 in0.0 mm 0.00 in0.0 mm 0.00 in0.0 mm
02:20 PM 50.7°F10.4°C 40.9°F4.9°C 69% 11.0 mph SW17.7 kmh SW 15.9 mph25.6 kmh 29.73 in1006.8 mb 0.00 in0.0 mm 0.00 in0.0 mm 0.00 in0.0 mm
02:30 PM 51.3°F10.7°C 41.8°F5.4°C 70% 8.1 mph SSW13.0 kmh SSW 11.4 mph18.3 kmh 29.73 in1006.8 mb 0.00 in0.0 mm 0.00 in0.0 mm 0.00 in0.0 mm
02:40 PM 50.5°F10.3°C 40.8°F4.9°C 69% 9.5 mph SSW15.3 kmh SSW 13.0 mph20.9 kmh 29.73 in1006.8 mb 0.00 in0.0 mm 0.00 in0.0 mm 0.00 in0.0 mm
02:50 PM 50.7°F10.4°C 41.3°F5.2°C 70% 10.6 mph S17.1 kmh S 13.0 mph20.9 kmh 29.73 in1006.8 mb 0.00 in0.0 mm 0.00 in0.0 mm 0.00 in0.0 mm
03:00 PM 50.7°F10.4°C 41.3°F5.2°C 70% 6.6 mph WSW10.6 kmh WSW 10.7 mph17.2 kmh 29.73 in1006.8 mb 0.00 in0.0 mm 0.00 in0.0 mm 0.00 in0.0 mm
03:10 PM 50.7°F10.4°C 41.3°F5.2°C 70% 8.5 mph SSW13.7 kmh SSW 13.6 mph21.9 kmh 29.72 in1006.4 mb 0.00 in0.0 mm 0.00 in0.0 mm 0.00 in0.0 mm
03:20 PM 51.1°F10.6°C 41.6°F5.3°C 70% 6.5 mph SW10.5 kmh SW 12.1 mph19.5 kmh 29.72 in1006.4 mb 0.00 in0.0 mm 0.00 in0.0 mm 0.00 in0.0 mm
03:30 PM 50.9°F10.5°C 41.5°F5.3°C 70% 6.2 mph SW10.0 kmh SW 9.2 mph14.8 kmh 29.72 in1006.4 mb 0.00 in0.0 mm 0.00 in0.0 mm 0.00 in0.0 mm
03:40 PM 50.9°F10.5°C 41.5°F5.3°C 70% 6.1 mph SW9.8 kmh SW 9.8 mph15.8 kmh 29.72 in1006.4 mb 0.00 in0.0 mm 0.00 in0.0 mm 0.00 in0.0 mm
03:50 PM 50.4°F10.2°C 41.0°F5.0°C 70% 6.3 mph S10.1 kmh S 11.4 mph18.3 kmh 29.72 in1006.4 mb 0.00 in0.0 mm 0.00 in0.0 mm 0.00 in0.0 mm
04:00 PM 49.8°F9.9°C 40.8°F4.9°C 71% 8.9 mph S14.3 kmh S 12.1 mph19.5 kmh 29.71 in1006.1 mb 0.00 in0.0 mm 0.00 in0.0 mm 0.00 in0.0 mm
04:10 PM 49.5°F9.7°C 40.5°F4.7°C 71% 7.9 mph SSW12.7 kmh SSW 14.5 mph23.3 kmh 29.71 in1006.1 mb 0.00 in0.0 mm 0.00 in0.0 mm 0.00 in0.0 mm
04:20 PM 49.1°F9.5°C 40.5°F4.7°C 72% 8.0 mph SW12.9 kmh SW 13.6 mph21.9 kmh 29.71 in1006.1 mb 0.00 in0.0 mm 0.00 in0.0 mm 0.00 in0.0 mm
04:30 PM 48.9°F9.4°C 40.3°F4.6°C 72% 6.0 mph SE9.7 kmh SE 7.6 mph12.2 kmh 29.71 in1006.1 mb 0.00 in0.0 mm 0.00 in0.0 mm 0.00 in0.0 mm
04:40 PM 48.4°F9.1°C 39.8°F4.3°C 72% 7.4 mph SSW11.9 kmh SSW 10.7 mph17.2 kmh 29.71 in1006.1 mb 0.00 in0.0 mm 0.00 in0.0 mm 0.00 in0.0 mm
04:50 PM 48.0°F8.9°C 39.8°F4.3°C 73% 6.7 mph S10.8 kmh S 9.2 mph14.8 kmh 29.70 in1005.8 mb 0.00 in0.0 mm 0.00 in0.0 mm 0.00 in0.0 mm
05:00 PM 47.7°F8.7°C 39.8°F4.3°C 74% 7.5 mph SSW12.1 kmh SSW 9.8 mph15.8 kmh 29.71 in1006.1 mb 0.00 in0.0 mm 0.00 in0.0 mm 0.00 in0.0 mm
05:10 PM 47.3°F8.5°C 39.8°F4.3°C 75% 5.7 mph SSW9.2 kmh SSW 8.3 mph13.4 kmh 29.71 in1006.1 mb 0.00 in0.0 mm 0.00 in0.0 mm 0.00 in0.0 mm
05:20 PM 47.1°F8.4°C 39.6°F4.2°C 75% 7.4 mph SSW11.9 kmh SSW 9.2 mph14.8 kmh 29.72 in1006.4 mb 0.00 in0.0 mm 0.00 in0.0 mm 0.00 in0.0 mm
05:30 PM 46.8°F8.2°C 39.6°F4.2°C 76% 6.7 mph SSW10.8 kmh SSW 9.8 mph15.8 kmh 29.71 in1006.1 mb 0.00 in0.0 mm 0.00 in0.0 mm 0.00 in0.0 mm
05:40 PM 46.6°F8.1°C 39.4°F4.1°C 76% 7.4 mph SW11.9 kmh SW 9.8 mph15.8 kmh 29.71 in1006.1 mb 0.00 in0.0 mm 0.00 in0.0 mm 0.00 in0.0 mm
05:50 PM 46.4°F8.0°C 39.6°F4.2°C 77% 7.0 mph SW11.3 kmh SW 10.7 mph17.2 kmh 29.71 in1006.1 mb 0.00 in0.0 mm 0.00 in0.0 mm 0.00 in0.0 mm
06:00 PM 46.2°F7.9°C 39.4°F4.1°C 77% 5.4 mph SW8.7 kmh SW 7.6 mph12.2 kmh 29.71 in1006.1 mb 0.00 in0.0 mm 0.00 in0.0 mm 0.00 in0.0 mm
06:10 PM 46.2°F7.9°C 39.4°F4.1°C 77% 4.1 mph SSW6.6 kmh SSW 7.6 mph12.2 kmh 29.71 in1006.1 mb 0.00 in0.0 mm 0.00 in0.0 mm 0.00 in0.0 mm
06:20 PM 45.9°F7.7°C 39.1°F3.9°C 77% Calm Calm -- 29.72 in1006.4 mb 0.00 in0.0 mm 0.00 in0.0 mm 0.00 in0.0 mm
06:30 PM 45.3°F7.4°C 40.5°F4.7°C 83% Calm Calm 0.7 mph1.1 kmh 29.72 in1006.4 mb 0.00 in0.0 mm 0.00 in0.0 mm 0.00 in0.0 mm
06:40 PM 45.0°F7.2°C 40.1°F4.5°C 83% 0.2 mph SW0.3 kmh SW 2.2 mph3.5 kmh 29.72 in1006.4 mb 0.00 in0.0 mm 0.00 in0.0 mm 0.00 in0.0 mm
06:50 PM 44.8°F7.1°C 39.9°F4.4°C 83% 1.0 mph SW1.6 kmh SW 4.5 mph7.2 kmh 29.72 in1006.4 mb 0.00 in0.0 mm 0.00 in0.0 mm 0.00 in0.0 mm
07:00 PM 44.6°F7.0°C 40.1°F4.5°C 84% 0.1 mph S0.2 kmh S 0.7 mph1.1 kmh 29.72 in1006.4 mb 0.00 in0.0 mm 0.00 in0.0 mm 0.00 in0.0 mm
07:10 PM 44.6°F7.0°C 40.1°F4.5°C 84% 1.7 mph SW2.7 kmh SW 6.9 mph11.1 kmh 29.72 in1006.4 mb 0.00 in0.0 mm 0.00 in0.0 mm 0.00 in0.0 mm
07:20 PM 44.4°F6.9°C 40.2°F4.6°C 85% 0.1 mph S0.2 kmh S 2.2 mph3.5 kmh 29.71 in1006.1 mb 0.00 in0.0 mm 0.00 in0.0 mm 0.00 in0.0 mm
07:30 PM 44.4°F6.9°C 40.2°F4.6°C 85% 0.5 mph S0.8 kmh S 3.1 mph5.0 kmh 29.71 in1006.1 mb 0.00 in0.0 mm 0.00 in0.0 mm 0.00 in0.0 mm
07:40 PM 44.6°F7.0°C 40.4°F4.7°C 85% 0.4 mph NW0.6 kmh NW 5.4 mph8.7 kmh 29.70 in1005.8 mb 0.00 in0.0 mm 0.00 in0.0 mm 0.00 in0.0 mm
07:50 PM 44.6°F7.0°C 40.7°F4.8°C 86% 2.2 mph SE3.5 kmh SE 7.6 mph12.2 kmh 29.71 in1006.1 mb 0.00 in0.0 mm 0.00 in0.0 mm 0.00 in0.0 mm
08:00 PM 44.6°F7.0°C 40.7°F4.8°C 86% Calm Calm -- 29.71 in1006.1 mb 0.00 in0.0 mm 0.00 in0.0 mm 0.00 in0.0 mm
08:10 PM 44.6°F7.0°C 40.7°F4.8°C 86% 1.5 mph SSW2.4 kmh SSW 5.4 mph8.7 kmh 29.71 in1006.1 mb 0.00 in0.0 mm 0.00 in0.0 mm 0.00 in0.0 mm
08:20 PM 44.6°F7.0°C 40.7°F4.8°C 86% 0.1 mph SW0.2 kmh SW 0.7 mph1.1 kmh 29.71 in1006.1 mb 0.00 in0.0 mm 0.00 in0.0 mm 0.00 in0.0 mm
08:30 PM 44.4°F6.9°C 40.5°F4.7°C 86% Calm Calm -- 29.73 in1006.8 mb 0.00 in0.0 mm 0.00 in0.0 mm 0.00 in0.0 mm
08:40 PM 44.2°F6.8°C 40.3°F4.6°C 86% Calm Calm -- 29.73 in1006.8 mb 0.00 in0.0 mm 0.00 in0.0 mm 0.00 in0.0 mm
08:50 PM 44.1°F6.7°C 40.1°F4.5°C 86% Calm Calm -- 29.73 in1006.8 mb 0.00 in0.0 mm 0.00 in0.0 mm 0.00 in0.0 mm
09:00 PM 44.2°F6.8°C 40.6°F4.8°C 87% Calm Calm -- 29.73 in1006.8 mb 0.00 in0.0 mm 0.00 in0.0 mm 0.00 in0.0 mm
09:10 PM 44.2°F6.8°C 40.6°F4.8°C 87% Calm Calm -- 29.73 in1006.8 mb 0.00 in0.0 mm 0.00 in0.0 mm 0.00 in0.0 mm
09:20 PM 44.2°F6.8°C 40.6°F4.8°C 87% Calm Calm -- 29.73 in1006.8 mb 0.00 in0.0 mm 0.00 in0.0 mm 0.00 in0.0 mm
09:30 PM 44.2°F6.8°C 40.6°F4.8°C 87% Calm Calm -- 29.73 in1006.8 mb 0.00 in0.0 mm 0.00 in0.0 mm 0.00 in0.0 mm
09:40 PM 44.6°F7.0°C 41.0°F5.0°C 87% Calm Calm -- 29.73 in1006.8 mb 0.00 in0.0 mm 0.00 in0.0 mm 0.00 in0.0 mm
09:50 PM 44.8°F7.1°C 41.4°F5.2°C 88% 0.1 mph SW0.2 kmh SW 1.6 mph2.6 kmh 29.73 in1006.8 mb 0.00 in0.0 mm 0.00 in0.0 mm 0.00 in0.0 mm
10:00 PM 44.4°F6.9°C 41.1°F5.1°C 88% Calm Calm -- 29.73 in1006.8 mb 0.00 in0.0 mm 0.00 in0.0 mm 0.00 in0.0 mm
10:10 PM 44.1°F6.7°C 40.7°F4.8°C 88% Calm Calm -- 29.73 in1006.8 mb 0.00 in0.0 mm 0.00 in0.0 mm 0.00 in0.0 mm
10:20 PM 43.9°F6.6°C 40.6°F4.8°C 88% Calm Calm -- 29.72 in1006.4 mb 0.00 in0.0 mm 0.00 in0.0 mm 0.00 in0.0 mm
10:30 PM 43.7°F6.5°C 40.4°F4.7°C 88% Calm Calm -- 29.73 in1006.8 mb 0.00 in0.0 mm 0.00 in0.0 mm 0.00 in0.0 mm
10:40 PM 43.3°F6.3°C 40.0°F4.4°C 88% 0.3 mph S0.5 kmh S 2.2 mph3.5 kmh 29.73 in1006.8 mb 0.00 in0.0 mm 0.00 in0.0 mm 0.00 in0.0 mm
10:50 PM 43.3°F6.3°C 40.0°F4.4°C 88% 0.5 mph SE0.8 kmh SE 3.8 mph6.1 kmh 29.72 in1006.4 mb 0.00 in0.0 mm 0.00 in0.0 mm 0.00 in0.0 mm
11:00 PM 43.2°F6.2°C 39.9°F4.4°C 88% Calm Calm -- 29.73 in1006.8 mb 0.00 in0.0 mm 0.00 in0.0 mm 0.00 in0.0 mm
11:10 PM 43.0°F6.1°C 39.7°F4.3°C 88% 0.1 mph S0.2 kmh S 1.6 mph2.6 kmh 29.73 in1006.8 mb 0.00 in0.0 mm 0.00 in0.0 mm 0.00 in0.0 mm
11:20 PM 42.8°F6.0°C 39.5°F4.2°C 88% 0.3 mph S0.5 kmh S 2.2 mph3.5 kmh 29.73 in1006.8 mb 0.00 in0.0 mm 0.00 in0.0 mm 0.00 in0.0 mm
11:30 PM 42.8°F6.0°C 39.5°F4.2°C 88% 0.6 mph SSW1.0 kmh SSW 5.4 mph8.7 kmh 29.73 in1006.8 mb 0.00 in0.0 mm 0.00 in0.0 mm 0.00 in0.0 mm
11:40 PM 43.2°F6.2°C 39.9°F4.4°C 88% 0.5 mph SE0.8 kmh SE 4.5 mph7.2 kmh 29.73 in1006.8 mb 0.00 in0.0 mm 0.00 in0.0 mm 0.00 in0.0 mm
11:50 PM 43.3°F6.3°C 40.3°F4.6°C 89% 0.9 mph S1.4 kmh S 3.8 mph6.1 kmh 29.73 in1006.8 mb 0.00 in0.0 mm 0.00 in0.0 mm 0.00 in0.0 mm